Time;durP1;ratioP1;P1;durP2;ratioP2;P2;SDS_P1;SDS_P2;PMS_P1;PMS_P2;Temp;Humidity;BMP_temperature;BMP_pressure;BME280_temperature;BME280_humidity;BME280_pressure;Samples;Min_cycle;Max_cycle;Signal;HPM_P1;HPM_P2
2023/06/03 00:00:22;;;;;;;8.80;3.50;;;;;;;14.02;100.00;92383.13;5058665;28;20073;-76
2023/06/03 00:02:52;;;;;;;6.55;3.20;;;;;;;13.95;100.00;92380.97;5058892;28;20032;-76
2023/06/03 00:05:20;;;;;;;8.48;3.25;;;;;;;13.86;100.00;92380.94;5063314;28;20143;-76
2023/06/03 00:07:45;;;;;;;6.50;3.38;;;;;;;13.82;100.00;92382.66;5073111;28;20033;-76
2023/06/03 00:10:11;;;;;;;7.03;3.10;;;;;;;13.78;100.00;92380.94;5074214;28;20456;-76
2023/06/03 00:12:37;;;;;;;6.57;3.00;;;;;;;13.74;100.00;92386.06;5052742;28;20024;-76
2023/06/03 00:15:02;;;;;;;6.88;3.10;;;;;;;13.68;100.00;92384.66;5082007;28;20028;-75
2023/06/03 00:17:28;;;;;;;6.97;3.45;;;;;;;13.68;100.00;92382.78;5088382;28;20482;-76
2023/06/03 00:19:57;;;;;;;8.32;3.47;;;;;;;13.63;100.00;92390.06;5054192;28;20043;-76
2023/06/03 00:22:23;;;;;;;6.18;2.90;;;;;;;13.60;100.00;92393.28;5050175;28;20032;-76
2023/06/03 00:24:49;;;;;;;7.38;2.83;;;;;;;13.57;100.00;92396.53;5071162;28;20031;-76
2023/06/03 00:27:15;;;;;;;5.20;3.05;;;;;;;13.54;100.00;92390.81;5064480;28;20036;-76
2023/06/03 00:29:41;;;;;;;4.70;2.83;;;;;;;13.53;100.00;92394.53;5073774;28;20394;-76
2023/06/03 00:32:07;;;;;;;4.60;2.70;;;;;;;13.53;100.00;92396.38;5089470;28;20024;-76
2023/06/03 00:34:32;;;;;;;5.53;2.78;;;;;;;13.54;100.00;92393.44;5064926;28;20048;-76
2023/06/03 00:36:58;;;;;;;5.95;2.70;;;;;;;13.53;100.00;92391.91;5069658;28;20046;-76
2023/06/03 00:39:24;;;;;;;10.45;2.83;;;;;;;13.57;100.00;92394.69;5054814;28;20055;-76
2023/06/03 00:41:49;;;;;;;4.95;2.70;;;;;;;13.57;100.00;92386.78;5057930;28;20126;-76
2023/06/03 00:44:15;;;;;;;4.20;2.38;;;;;;;13.58;100.00;92392.81;5062668;28;20025;-76
2023/06/03 00:46:41;;;;;;;5.80;2.88;;;;;;;13.59;100.00;92407.53;5072490;28;20051;-76
2023/06/03 00:49:07;;;;;;;5.30;2.70;;;;;;;13.57;100.00;92396.53;5060139;28;20063;-76
2023/06/03 00:51:35;;;;;;;4.72;2.75;;;;;;;13.56;100.00;92402.88;5079789;28;20048;-76
2023/06/03 00:54:01;;;;;;;5.93;2.83;;;;;;;13.54;100.00;92403.19;5073844;28;20169;-76
2023/06/03 00:56:27;;;;;;;4.28;2.55;;;;;;;13.53;100.00;92404.25;5081722;28;20119;-76
2023/06/03 00:58:53;;;;;;;5.25;2.90;;;;;;;13.52;100.00;92400.09;5088344;28;20553;-75
2023/06/03 01:01:21;;;;;;;6.00;2.85;;;;;;;13.50;100.00;92397.75;5066624;28;20040;-76
2023/06/03 01:03:47;;;;;;;4.30;2.60;;;;;;;13.48;100.00;92401.78;5064252;28;20682;-76
2023/06/03 01:06:55;;;;;;;9.52;2.75;;;;;;;13.45;100.00;92411.06;5064608;28;20032;-76
2023/06/03 01:09:33;;;;;;;6.47;2.92;;;;;;;13.45;100.00;92407.66;5063909;28;20450;-76
2023/06/03 01:12:09;;;;;;;6.15;2.75;;;;;;;13.48;100.00;92404.41;5090583;28;20028;-76
2023/06/03 01:15:00;;;;;;;6.85;2.80;;;;;;;13.53;100.00;92409.50;5076143;28;20068;-76
2023/06/03 01:17:31;;;;;;;6.32;3.33;;;;;;;13.65;100.00;92406.31;5058710;28;20486;-76
2023/06/03 01:19:59;;;;;;;6.43;2.97;;;;;;;13.90;100.00;92410.84;5078175;28;20547;-76
2023/06/03 01:22:26;;;;;;;6.15;2.72;;;;;;;13.84;100.00;92417.31;5075973;28;20028;-76
2023/06/03 01:25:06;;;;;;;5.65;3.05;;;;;;;13.70;100.00;92419.31;5056572;28;20032;-76
2023/06/03 01:27:32;;;;;;;6.80;2.95;;;;;;;13.61;100.00;92426.41;5079644;28;20056;-76
2023/06/03 01:29:58;;;;;;;5.45;3.20;;;;;;;13.51;100.00;92432.75;5061694;28;20390;-76
2023/06/03 01:32:24;;;;;;;5.10;3.05;;;;;;;13.44;100.00;92437.63;5071455;28;20446;-76
2023/06/03 01:34:51;;;;;;;4.82;2.88;;;;;;;13.31;100.00;92437.44;5063854;28;20032;-76
2023/06/03 01:37:17;;;;;;;6.35;3.70;;;;;;;13.24;100.00;92446.81;5054294;28;20071;-76
2023/06/03 01:39:43;;;;;;;6.68;3.10;;;;;;;13.19;100.00;92449.56;5066175;28;20263;-76
2023/06/03 01:42:10;;;;;;;6.30;3.33;;;;;;;13.17;100.00;92451.72;5088475;28;20040;-76
2023/06/03 01:44:37;;;;;;;6.50;3.60;;;;;;;13.12;100.00;92458.66;5067921;28;20036;-76
2023/06/03 01:47:04;;;;;;;5.55;3.10;;;;;;;13.11;100.00;92465.00;5062930;28;20119;-76
2023/06/03 01:49:31;;;;;;;8.90;3.80;;;;;;;13.13;100.00;92469.97;5079919;28;20032;-76
2023/06/03 01:52:01;;;;;;;5.15;3.05;;;;;;;13.21;100.00;92479.72;5076989;28;20024;-76
2023/06/03 01:54:28;;;;;;;8.93;3.20;;;;;;;13.21;100.00;92484.22;5064263;28;20024;-75
2023/06/03 01:56:56;;;;;;;5.82;3.28;;;;;;;13.18;100.00;92484.84;5053864;28;20045;-76
2023/06/03 01:59:23;;;;;;;8.55;3.63;;;;;;;13.15;100.00;92498.56;5051382;28;20035;-76
2023/06/03 02:01:53;;;;;;;6.20;3.28;;;;;;;13.12;100.00;92497.31;5061328;28;20099;-76
2023/06/03 02:04:21;;;;;;;6.35;3.05;;;;;;;13.10;100.00;92500.25;5053739;28;20064;-76
2023/06/03 02:06:59;;;;;;;6.90;3.58;;;;;;;13.07;100.00;92500.84;5055827;28;20063;-76
2023/06/03 02:09:29;;;;;;;5.65;3.25;;;;;;;13.03;100.00;92493.88;5061924;28;20052;-76
2023/06/03 02:11:56;;;;;;;5.22;3.25;;;;;;;13.01;100.00;92494.16;5062292;28;20040;-76
2023/06/03 02:14:26;;;;;;;6.97;3.20;;;;;;;13.03;100.00;92492.00;5087989;28;20513;-76
2023/06/03 02:16:55;;;;;;;6.40;3.50;;;;;;;13.10;100.00;92500.25;5058505;28;20062;-76
2023/06/03 02:19:23;;;;;;;13.95;3.90;;;;;;;13.17;100.00;92499.03;5069718;28;20039;-76
2023/06/03 02:21:48;;;;;;;6.47;3.58;;;;;;;13.24;100.00;92502.00;5063977;28;20386;-76
2023/06/03 02:24:14;;;;;;;6.90;3.72;;;;;;;13.31;100.00;92505.81;5053521;28;20023;-76
2023/06/03 02:26:50;;;;;;;7.30;3.95;;;;;;;13.40;100.00;92513.72;5071318;28;20482;-76
2023/06/03 02:29:18;;;;;;;7.10;4.00;;;;;;;13.50;100.00;92502.16;5060912;28;20115;-76
2023/06/03 02:31:44;;;;;;;6.47;3.70;;;;;;;13.59;100.00;92507.47;5064975;28;20462;-76
2023/06/03 02:34:10;;;;;;;6.75;3.90;;;;;;;13.54;100.00;92493.38;5056614;28;20041;-76
2023/06/03 02:36:35;;;;;;;6.40;3.40;;;;;;;13.55;100.00;92504.66;5057643;28;20081;-76
2023/06/03 02:39:01;;;;;;;7.50;3.90;;;;;;;13.52;100.00;92510.53;5082715;28;20039;-76
2023/06/03 02:41:26;;;;;;;5.97;3.70;;;;;;;13.49;100.00;92514.56;5067425;28;20059;-76
2023/06/03 02:43:52;;;;;;;5.70;3.30;;;;;;;13.48;100.00;92512.97;5051976;28;20106;-76
2023/06/03 02:46:18;;;;;;;10.70;3.88;;;;;;;13.47;100.00;92508.81;5061372;28;20061;-76
2023/06/03 02:48:47;;;;;;;7.80;3.95;;;;;;;13.49;100.00;92516.41;5082827;28;20036;-76
2023/06/03 02:51:13;;;;;;;9.38;4.10;;;;;;;13.51;100.00;92515.03;5058835;28;20032;-76
2023/06/03 02:53:38;;;;;;;6.35;3.60;;;;;;;13.52;100.00;92505.28;5092479;28;20500;-76
2023/06/03 02:56:04;;;;;;;8.18;4.40;;;;;;;13.57;100.00;92507.00;5060305;28;20093;-77
2023/06/03 02:58:30;;;;;;;6.60;4.30;;;;;;;13.59;100.00;92510.88;5082274;28;20044;-77
2023/06/03 03:00:55;;;;;;;7.07;4.50;;;;;;;13.60;100.00;92512.44;5067267;28;20489;-76
2023/06/03 03:03:21;;;;;;;9.80;5.00;;;;;;;13.65;100.00;92511.53;5072165;28;20036;-76
2023/06/03 03:05:48;;;;;;;9.73;6.10;;;;;;;13.68;100.00;92505.66;5059495;28;20043;-76
2023/06/03 03:08:13;;;;;;;9.73;4.38;;;;;;;13.68;100.00;92509.03;5064420;28;20059;-77
2023/06/03 03:10:39;;;;;;;8.25;4.72;;;;;;;13.69;100.00;92504.56;5071880;28;20501;-76
2023/06/03 03:13:05;;;;;;;11.43;4.85;;;;;;;13.68;100.00;92503.78;5074405;28;20035;-76
2023/06/03 03:15:31;;;;;;;6.65;4.43;;;;;;;13.67;100.00;92502.25;5073986;28;20032;-76
2023/06/03 03:17:56;;;;;;;8.30;4.50;;;;;;;13.68;100.00;92497.75;5074067;28;20554;-76
2023/06/03 03:20:24;;;;;;;8.07;4.30;;;;;;;13.66;100.00;92499.91;5049171;28;20458;-76
2023/06/03 03:22:50;;;;;;;7.43;4.45;;;;;;;13.66;100.00;92499.91;5057268;28;20025;-76
2023/06/03 03:25:18;;;;;;;6.93;4.43;;;;;;;13.63;100.00;92505.78;5054428;28;20051;-76
2023/06/03 03:27:44;;;;;;;7.10;4.60;;;;;;;13.62;100.00;92514.75;5066912;28;20044;-77
2023/06/03 03:30:10;;;;;;;7.45;4.40;;;;;;;13.60;100.00;92509.81;5075076;28;20059;-76
2023/06/03 03:32:38;;;;;;;11.07;4.78;;;;;;;13.57;100.00;92512.25;5071289;28;20036;-76
2023/06/03 03:35:21;;;;;;;7.93;4.68;;;;;;;13.56;100.00;92505.47;5064412;28;20028;-76
2023/06/03 03:38:00;;;;;;;7.82;4.57;;;;;;;13.54;100.00;92509.16;5049924;28;20036;-76
2023/06/03 03:40:25;;;;;;;12.95;4.85;;;;;;;13.54;100.00;92511.78;5074785;28;20123;-76
2023/06/03 03:42:55;;;;;;;8.27;4.63;;;;;;;13.53;100.00;92512.88;5047190;28;20028;-76
2023/06/03 03:45:28;;;;;;;7.63;4.63;;;;;;;13.53;100.00;92520.75;5056518;28;20047;-76
2023/06/03 03:48:03;;;;;;;7.13;4.80;;;;;;;13.51;100.00;92512.41;5073200;28;20036;-76
2023/06/03 03:50:30;;;;;;;8.52;5.30;;;;;;;13.50;100.00;92517.94;5064468;28;20101;-76
2023/06/03 03:53:01;;;;;;;8.63;5.45;;;;;;;13.50;100.00;92508.19;5058536;28;20024;-76
2023/06/03 03:55:27;;;;;;;9.32;4.80;;;;;;;13.49;100.00;92519.81;5062485;28;20028;-76
2023/06/03 03:57:52;;;;;;;9.77;5.05;;;;;;;13.48;100.00;92510.34;5064248;28;20047;-76
2023/06/03 04:00:21;;;;;;;7.88;5.43;;;;;;;13.47;100.00;92508.81;5065837;28;20036;-76
2023/06/03 04:02:51;;;;;;;9.65;5.65;;;;;;;13.46;100.00;92517.75;5068868;28;20040;-76
2023/06/03 04:05:17;;;;;;;11.35;5.38;;;;;;;13.48;100.00;92520.09;5031652;28;20040;-76
2023/06/03 04:07:46;;;;;;;10.38;4.95;;;;;;;13.46;100.00;92517.75;5055774;28;20490;-76
2023/06/03 04:10:12;;;;;;;8.25;5.43;;;;;;;13.47;100.00;92521.19;5073271;28;20048;-76
2023/06/03 04:12:38;;;;;;;9.13;5.45;;;;;;;13.47;100.00;92518.56;5077788;28;20041;-76
2023/06/03 04:15:07;;;;;;;8.48;5.25;;;;;;;13.46;100.00;92520.41;5053400;28;20040;-76
2023/06/03 04:17:37;;;;;;;7.53;5.30;;;;;;;13.50;100.00;92518.72;5083576;28;20124;-76
2023/06/03 04:20:42;;;;;;;10.85;5.53;;;;;;;13.51;100.00;92517.66;5055140;28;20409;-76
2023/06/03 04:23:14;;;;;;;8.45;5.43;;;;;;;13.57;100.00;92512.25;5061840;28;20501;-76
2023/06/03 04:25:41;;;;;;;9.77;5.60;;;;;;;13.67;100.00;92512.78;5077337;28;20482;-76
2023/06/03 04:28:08;;;;;;;10.57;6.05;;;;;;;13.74;100.00;92515.72;5064603;28;20040;-76
2023/06/03 04:30:38;;;;;;;9.75;5.65;;;;;;;13.72;100.00;92517.88;5072691;28;20041;-76
2023/06/03 04:33:05;;;;;;;8.43;5.47;;;;;;;13.73;100.00;92514.19;5061359;28;20024;-76
2023/06/03 04:35:32;;;;;;;8.77;5.55;;;;;;;13.74;100.00;92512.31;5058113;28;20032;-76
2023/06/03 04:37:59;;;;;;;9.63;6.22;;;;;;;13.79;100.00;92512.19;5055806;28;20044;-77
2023/06/03 04:40:27;;;;;;;10.32;5.45;;;;;;;13.80;100.00;92516.34;5059460;28;20067;-76
2023/06/03 04:42:53;;;;;;;10.30;5.65;;;;;;;13.85;100.00;92513.59;5063318;28;20090;-76
2023/06/03 04:45:23;;;;;;;10.38;5.55;;;;;;;13.92;100.00;92513.94;5057265;28;20119;-76
2023/06/03 04:47:52;;;;;;;9.52;5.20;;;;;;;13.99;100.00;92512.72;5057320;28;20109;-76
2023/06/03 04:50:24;;;;;;;8.25;5.30;;;;;;;14.03;100.00;92503.91;5044949;28;20040;-76
2023/06/03 04:52:51;;;;;;;8.13;5.65;;;;;;;14.08;100.00;92506.38;5053920;28;20029;-76
2023/06/03 04:55:18;;;;;;;12.35;5.82;;;;;;;14.16;100.00;92507.47;5060665;28;20037;-76
2023/06/03 04:57:47;;;;;;;7.68;5.10;;;;;;;14.26;100.00;92507.19;5047217;28;20429;-75
2023/06/03 05:00:18;;;;;;;12.90;5.82;;;;;;;14.35;100.00;92507.19;5063177;28;20044;-76
2023/06/03 05:02:57;;;;;;;8.35;5.25;;;;;;;14.46;100.00;92505.03;5059362;28;20079;-76
2023/06/03 05:05:26;;;;;;;9.23;5.45;;;;;;;14.57;100.00;92498.41;5065496;28;20044;-77
2023/06/03 05:07:52;;;;;;;9.15;5.20;;;;;;;14.68;100.00;92497.03;5050143;28;20054;-76
2023/06/03 05:10:18;;;;;;;8.82;5.72;;;;;;;14.77;100.00;92502.25;5056414;28;20129;-75
2023/06/03 05:12:48;;;;;;;6.93;4.40;;;;;;;14.85;100.00;92512.03;5060362;28;20051;-76
2023/06/03 05:15:15;;;;;;;9.63;4.30;;;;;;;14.95;100.00;92497.75;5054020;28;20048;-76
2023/06/03 05:17:41;;;;;;;6.22;4.28;;;;;;;14.91;100.00;92504.75;5074004;28;20044;-75
2023/06/03 05:20:08;;;;;;;6.85;4.43;;;;;;;14.98;100.00;92495.28;5053830;28;20039;-76
2023/06/03 05:22:35;;;;;;;8.13;4.60;;;;;;;15.15;100.00;92502.41;5079658;28;20602;-78
2023/06/03 05:25:03;;;;;;;6.65;4.50;;;;;;;15.28;100.00;92497.25;5066805;28;20056;-78
2023/06/03 05:27:29;;;;;;;5.95;3.85;;;;;;;15.25;100.00;92506.56;5063055;28;20104;-79
2023/06/03 05:29:55;;;;;;;7.93;4.03;;;;;;;15.13;100.00;92511.69;5050849;28;20063;-79
2023/06/03 05:32:21;;;;;;;5.82;3.72;;;;;;;15.15;100.00;92506.88;5052475;28;20483;-78
2023/06/03 05:34:47;;;;;;;6.13;4.15;;;;;;;15.17;100.00;92502.81;5061960;28;20505;-78
2023/06/03 05:37:13;;;;;;;8.23;5.20;;;;;;;15.29;100.00;92498.78;5059453;28;20032;-78
2023/06/03 05:39:51;;;;;;;7.03;4.63;;;;;;;15.32;100.00;92506.84;5070634;28;20031;-78
2023/06/03 05:42:21;;;;;;;7.78;4.72;;;;;;;15.43;100.00;92509.91;5074861;28;20035;-78
2023/06/03 05:44:47;;;;;;;8.18;4.38;;;;;;;15.59;100.00;92507.53;5049972;28;20361;-78
2023/06/03 05:47:13;;;;;;;7.63;4.20;;;;;;;16.17;100.00;92497.38;5042126;28;20139;-75
2023/06/03 05:49:40;;;;;;;8.80;5.28;;;;;;;16.84;100.00;92507.03;5056235;28;20037;-78
2023/06/03 05:52:08;;;;;;;7.90;4.53;;;;;;;17.28;100.00;92510.03;5057843;28;20114;-78
2023/06/03 05:54:34;;;;;;;10.75;4.25;;;;;;;17.56;100.00;92509.44;5055826;28;20086;-79
2023/06/03 05:57:00;;;;;;;7.90;4.55;;;;;;;17.77;100.00;92513.88;5053245;28;20036;-79
2023/06/03 05:59:29;;;;;;;11.15;4.90;;;;;;;18.32;100.00;92517.88;5058618;28;20052;-79
2023/06/03 06:01:55;;;;;;;9.60;5.75;;;;;;;18.72;100.00;92514.50;5057416;28;20418;-78
2023/06/03 06:04:20;;;;;;;8.27;5.40;;;;;;;19.28;100.00;92511.88;5056397;28;20024;-80
2023/06/03 06:06:46;;;;;;;8.43;4.50;;;;;;;19.79;100.00;92511.28;5062387;28;20039;-80
2023/06/03 06:09:12;;;;;;;10.07;4.40;;;;;;;19.65;99.63;92510.91;5078751;28;20094;-79
2023/06/03 06:11:38;;;;;;;7.03;4.68;;;;;;;19.88;100.00;92508.44;5066204;28;20032;-79
2023/06/03 06:14:04;;;;;;;6.15;4.03;;;;;;;19.74;100.00;92514.97;5059745;28;20607;-80
2023/06/03 06:16:30;;;;;;;8.18;4.20;;;;;;;19.76;100.00;92512.72;5078954;28;20063;-78
2023/06/03 06:18:57;;;;;;;9.27;4.20;;;;;;;19.67;100.00;92521.97;5053918;28;20106;-77
2023/06/03 06:21:23;;;;;;;7.10;3.85;;;;;;;19.95;100.00;92519.28;5055495;28;20044;-75
2023/06/03 06:23:49;;;;;;;6.55;4.15;;;;;;;20.10;96.92;92521.13;5059742;28;20501;-74
2023/06/03 06:26:16;;;;;;;7.47;4.22;;;;;;;20.01;95.47;92519.78;5055516;28;20039;-77
2023/06/03 06:28:44;;;;;;;8.32;4.28;;;;;;;20.11;98.35;92517.38;5075787;28;20092;-77
2023/06/03 06:31:10;;;;;;;8.98;4.20;;;;;;;19.73;98.33;92525.94;5044825;28;20520;-79
2023/06/03 06:33:47;;;;;;;9.82;4.25;;;;;;;19.27;98.71;92528.13;5052937;28;20028;-79
2023/06/03 06:36:40;;;;;;;9.15;4.40;;;;;;;19.06;100.00;92531.00;5066353;28;20041;-79
2023/06/03 06:39:42;;;;;;;7.80;4.40;;;;;;;18.83;100.00;92531.50;5067469;28;20056;-79
2023/06/03 06:42:31;;;;;;;11.52;4.60;;;;;;;18.29;100.00;92535.22;5045050;28;20041;-78
2023/06/03 06:45:11;;;;;;;5.93;3.58;;;;;;;18.09;100.00;92536.88;5060779;28;20090;-79
2023/06/03 06:47:47;;;;;;;6.78;4.13;;;;;;;18.31;100.00;92537.53;5079170;28;20032;-79
2023/06/03 06:50:47;;;;;;;9.45;4.35;;;;;;;18.60;100.00;92538.38;5054149;28;20088;-78
2023/06/03 06:53:18;;;;;;;8.07;3.97;;;;;;;18.53;100.00;92544.25;5063199;28;20057;-78
2023/06/03 06:55:50;;;;;;;8.13;4.80;;;;;;;18.39;100.00;92549.88;5069568;28;20036;-77
2023/06/03 06:58:20;;;;;;;9.43;4.70;;;;;;;18.50;100.00;92545.66;5043314;28;20035;-78
2023/06/03 07:00:47;;;;;;;8.68;4.72;;;;;;;18.41;100.00;92545.03;5057225;28;20123;-78
2023/06/03 07:03:18;;;;;;;8.55;4.82;;;;;;;18.46;100.00;92550.13;5063350;28;20025;-78
2023/06/03 07:05:45;;;;;;;8.27;4.50;;;;;;;18.47;100.00;92546.34;5061107;28;20040;-78
2023/06/03 07:08:11;;;;;;;8.90;4.72;;;;;;;18.48;100.00;92542.56;5055726;28;20432;-78
2023/06/03 07:10:37;;;;;;;6.03;3.78;;;;;;;18.49;100.00;92548.66;5054552;28;20494;-78
2023/06/03 07:13:03;;;;;;;9.10;4.60;;;;;;;18.23;100.00;92551.66;5053018;28;20309;-78
2023/06/03 07:15:29;;;;;;;8.50;4.93;;;;;;;17.90;100.00;92552.53;5069735;28;20432;-78
2023/06/03 07:17:57;;;;;;;11.38;4.68;;;;;;;17.80;100.00;92547.63;5058203;28;20040;-77
2023/06/03 07:20:30;;;;;;;6.70;4.70;;;;;;;17.91;100.00;92551.44;5060008;28;20398;-78
2023/06/03 07:22:57;;;;;;;9.02;5.22;;;;;;;17.89;100.00;92558.94;5044186;28;20036;-78
2023/06/03 07:25:37;;;;;;;12.23;4.90;;;;;;;17.77;100.00;92551.72;5057008;28;20519;-77
2023/06/03 07:28:13;;;;;;;10.35;5.88;;;;;;;17.82;100.00;92553.41;5094671;28;20088;-77
2023/06/03 07:30:41;;;;;;;13.25;5.60;;;;;;;17.92;100.00;92557.50;5058794;28;20043;-77
2023/06/03 07:33:29;;;;;;;8.02;5.32;;;;;;;18.25;100.00;92560.81;5062522;28;20055;-78
2023/06/03 07:36:02;;;;;;;8.05;5.20;;;;;;;18.55;100.00;92557.91;5073623;28;20184;-77
2023/06/03 07:38:38;;;;;;;7.60;5.43;;;;;;;18.67;100.00;92559.81;5060603;28;20493;-77
2023/06/03 07:41:09;;;;;;;9.15;5.25;;;;;;;18.50;100.00;92561.56;5060688;28;20398;-77
2023/06/03 07:43:39;;;;;;;11.37;5.30;;;;;;;18.67;100.00;92559.81;5055006;28;20047;-77
2023/06/03 07:46:06;;;;;;;10.80;5.28;;;;;;;18.75;100.00;92561.53;5082444;28;20442;-78
2023/06/03 07:48:33;;;;;;;12.80;6.63;;;;;;;18.18;100.00;92559.84;5080651;28;20039;-77
2023/06/03 07:50:59;;;;;;;12.68;5.47;;;;;;;18.19;100.00;92566.66;5062783;28;20039;-77
2023/06/03 07:53:25;;;;;;;9.85;5.80;;;;;;;18.25;100.00;92565.34;5076441;28;20131;-77
2023/06/03 07:55:51;;;;;;;9.32;6.00;;;;;;;18.49;100.00;92561.94;5073880;28;20478;-77
2023/06/03 07:58:17;;;;;;;10.30;6.15;;;;;;;18.74;100.00;92560.00;5074660;28;20081;-77
2023/06/03 08:00:52;;;;;;;10.30;6.00;;;;;;;18.51;100.00;92563.13;5075866;28;20036;-77
2023/06/03 08:03:21;;;;;;;12.10;6.60;;;;;;;18.37;100.00;92570.63;5072097;28;20041;-77
2023/06/03 08:05:49;;;;;;;13.70;6.30;;;;;;;18.23;100.00;92578.16;5076751;28;20024;-77
2023/06/03 08:08:16;;;;;;;10.38;6.18;;;;;;;18.09;100.00;92579.25;5073259;28;20040;-77
2023/06/03 08:10:47;;;;;;;9.55;6.32;;;;;;;18.36;100.00;92584.22;5056247;28;20040;-77
2023/06/03 08:13:13;;;;;;;9.88;6.55;;;;;;;18.41;100.00;92579.47;5072923;28;20085;-77
2023/06/03 08:15:40;;;;;;;10.50;6.45;;;;;;;18.23;100.00;92588.75;5078389;28;20115;-77
2023/06/03 08:18:06;;;;;;;14.15;7.15;;;;;;;18.40;100.00;92590.44;5076064;28;20097;-77
2023/06/03 08:20:33;;;;;;;11.15;6.75;;;;;;;18.72;100.00;92586.09;5073972;28;20520;-77
2023/06/03 08:22:59;;;;;;;9.70;6.57;;;;;;;18.93;100.00;92584.06;5076223;28;20036;-78
2023/06/03 08:25:25;;;;;;;12.35;6.15;;;;;;;18.82;100.00;92590.94;5077038;28;20344;-78
2023/06/03 08:27:52;;;;;;;10.70;6.35;;;;;;;18.55;100.00;92594.25;5077006;28;20059;-79
2023/06/03 08:30:20;;;;;;;9.60;6.45;;;;;;;18.86;100.00;92593.72;5074107;28;20036;-82
2023/06/03 08:32:47;;;;;;;9.05;5.85;;;;;;;18.96;100.00;92584.50;5036613;28;20127;-80
2023/06/03 08:35:19;;;;;;;11.15;6.22;;;;;;;18.92;100.00;92585.19;5079771;28;20036;-76
2023/06/03 08:37:44;;;;;;;10.48;6.50;;;;;;;18.70;100.00;92598.91;5072124;28;20034;-75
2023/06/03 08:40:12;;;;;;;8.98;5.88;;;;;;;18.60;100.00;92597.47;5089991;28;20024;-75
2023/06/03 08:42:43;;;;;;;9.32;5.57;;;;;;;18.63;100.00;92602.09;5076036;28;20082;-75
2023/06/03 08:45:11;;;;;;;7.75;4.95;;;;;;;18.81;100.00;92605.31;5072788;28;20108;-76
2023/06/03 08:47:55;;;;;;;8.93;5.80;;;;;;;18.77;100.00;92615.03;5053139;28;20028;-76
2023/06/03 08:50:22;;;;;;;13.48;5.93;;;;;;;18.59;100.00;92611.81;5071496;28;20040;-76
2023/06/03 08:52:51;;;;;;;8.45;5.72;;;;;;;18.39;100.00;92607.41;5054977;28;20032;-75
2023/06/03 08:55:18;;;;;;;9.50;5.68;;;;;;;18.48;100.00;92608.84;5071352;28;20060;-76
2023/06/03 08:57:56;;;;;;;9.18;6.07;;;;;;;18.23;100.00;92605.41;5053194;28;20024;-76
2023/06/03 09:00:24;;;;;;;8.80;5.53;;;;;;;18.24;100.00;92600.91;5071392;28;20090;-76
2023/06/03 09:02:53;;;;;;;10.30;5.82;;;;;;;18.04;100.00;92611.25;5062939;28;20568;-76
2023/06/03 09:05:20;;;;;;;12.23;6.47;;;;;;;18.05;100.00;92610.13;5078982;28;20043;-75
2023/06/03 09:07:47;;;;;;;6.72;4.57;;;;;;;18.25;100.00;92610.41;5043874;28;20505;-76
2023/06/03 09:10:15;;;;;;;12.00;6.05;;;;;;;18.34;100.00;92615.59;5082767;28;20116;-76
2023/06/03 09:12:42;;;;;;;11.07;7.40;;;;;;;18.30;100.00;92610.94;5057384;28;20056;-76
2023/06/03 09:15:08;;;;;;;11.68;6.15;;;;;;;18.41;100.00;92611.28;5061523;28;20402;-76
2023/06/03 09:17:37;;;;;;;10.15;6.60;;;;;;;18.51;100.00;92610.06;5071611;28;20056;-76
2023/06/03 09:20:05;;;;;;;9.27;6.13;;;;;;;18.69;100.00;92606.09;5054633;28;20418;-76
2023/06/03 09:22:30;;;;;;;9.68;5.57;;;;;;;19.19;100.00;92603.38;5071639;28;20409;-75
2023/06/03 09:24:56;;;;;;;7.95;4.53;;;;;;;19.44;100.00;92602.16;5083173;28;20036;-76
2023/06/03 09:27:22;;;;;;;14.25;5.93;;;;;;;19.69;100.00;92599.44;5053238;28;20036;-76
2023/06/03 09:29:47;;;;;;;9.48;5.45;;;;;;;19.55;100.00;92613.84;5077240;28;20119;-76
2023/06/03 09:32:13;;;;;;;12.20;5.93;;;;;;;19.55;100.00;92607.78;5088408;28;20031;-76
2023/06/03 09:34:39;;;;;;;8.32;5.47;;;;;;;19.54;100.00;92611.53;5053455;28;20059;-76
2023/06/03 09:37:08;;;;;;;9.00;5.90;;;;;;;19.60;100.00;92594.25;5071394;28;20024;-76
2023/06/03 09:39:36;;;;;;;9.07;5.25;;;;;;;19.61;100.00;92606.41;5073530;28;20521;-75
2023/06/03 09:42:03;;;;;;;9.45;5.63;;;;;;;19.96;100.00;92600.50;5075302;28;20028;-76
2023/06/03 09:44:43;;;;;;;11.32;6.28;;;;;;;19.69;100.00;92604.75;5071206;28;20040;-75
2023/06/03 09:47:11;;;;;;;8.90;5.05;;;;;;;19.66;100.00;92598.19;5070870;28;20024;-76
2023/06/03 09:49:37;;;;;;;8.23;5.53;;;;;;;19.82;100.00;92600.91;5071004;28;20035;-76
2023/06/03 09:52:07;;;;;;;10.38;6.35;;;;;;;19.94;100.00;92598.19;5055337;28;20028;-76
2023/06/03 09:54:33;;;;;;;8.68;5.80;;;;;;;19.94;100.00;92592.09;5087738;28;20032;-75
2023/06/03 09:57:24;;;;;;;11.95;6.10;;;;;;;19.70;100.00;92590.34;5070301;28;20035;-76
2023/06/03 10:00:07;;;;;;;7.80;5.47;;;;;;;19.30;100.00;92591.16;5065015;28;20343;-75
2023/06/03 10:02:44;;;;;;;9.63;5.75;;;;;;;19.68;100.00;92603.94;5077732;28;20032;-76
2023/06/03 10:05:29;;;;;;;9.70;6.35;;;;;;;19.96;100.00;92584.56;5079939;28;20028;-76
2023/06/03 10:07:56;;;;;;;10.35;5.80;;;;;;;20.24;100.00;92589.03;5083102;28;20036;-76
2023/06/03 10:10:23;;;;;;;12.35;7.28;;;;;;;20.00;100.00;92590.75;5056728;28;20048;-76
2023/06/03 10:12:50;;;;;;;12.30;6.18;;;;;;;20.02;100.00;92591.19;5059732;28;20035;-76
2023/06/03 10:15:38;;;;;;;8.00;5.28;;;;;;;20.02;99.63;92587.72;5059175;28;20029;-76
2023/06/03 10:18:05;;;;;;;10.98;6.78;;;;;;;20.18;100.00;92599.91;5051519;28;20056;-76
2023/06/03 10:20:32;;;;;;;8.95;6.20;;;;;;;20.05;100.00;92595.03;5050420;28;20428;-76
2023/06/03 10:23:03;;;;;;;9.45;6.28;;;;;;;20.30;100.00;92587.66;5048557;28;20033;-76
2023/06/03 10:25:32;;;;;;;10.10;6.80;;;;;;;20.17;100.00;92579.78;5051021;28;20047;-76
2023/06/03 10:27:59;;;;;;;10.30;6.47;;;;;;;20.10;100.00;92584.91;5050631;28;20032;-76
2023/06/03 10:30:27;;;;;;;11.73;7.50;;;;;;;20.08;100.00;92584.47;5050404;28;20029;-76
2023/06/03 10:32:57;;;;;;;9.60;5.20;;;;;;;20.17;100.00;92585.09;5058986;28;20120;-80
2023/06/03 10:35:23;;;;;;;11.10;7.68;;;;;;;19.97;100.00;92586.09;5066325;28;20037;-75
2023/06/03 10:37:49;;;;;;;11.25;6.68;;;;;;;20.23;100.00;92574.97;5059679;28;20188;-75
2023/06/03 10:40:16;;;;;;;13.75;7.88;;;;;;;19.79;100.00;92582.97;5049623;28;20119;-75
2023/06/03 10:42:43;;;;;;;11.13;7.38;;;;;;;19.57;100.00;92586.97;5057101;28;20025;-76
2023/06/03 10:45:11;;;;;;;9.43;6.35;;;;;;;20.09;100.00;92579.94;5052044;28;20037;-75
2023/06/03 10:47:42;;;;;;;10.15;7.07;;;;;;;19.68;100.00;92572.09;5064492;28;20083;-76
2023/06/03 10:50:21;;;;;;;10.80;7.18;;;;;;;19.35;100.00;92586.38;5032896;28;20127;-76
2023/06/03 10:53:09;;;;;;;10.35;6.70;;;;;;;19.44;100.00;92590.78;5056414;28;20539;-76
2023/06/03 10:55:40;;;;;;;11.32;7.07;;;;;;;19.50;100.00;92584.13;5052218;28;20068;-75
2023/06/03 10:58:17;;;;;;;9.40;6.15;;;;;;;19.46;100.00;92591.22;5064423;28;20098;-75
2023/06/03 11:01:00;;;;;;;10.80;7.50;;;;;;;19.58;100.00;92598.34;5063708;28;20486;-75
2023/06/03 11:03:26;;;;;;;13.38;8.38;;;;;;;19.63;100.00;92592.78;5066642;28;20064;-79
2023/06/03 11:05:53;;;;;;;12.32;7.30;;;;;;;19.56;100.00;92588.06;5058091;28;20029;-78
2023/06/03 11:08:57;;;;;;;10.32;7.32;;;;;;;19.63;100.00;92582.94;5062241;28;20032;-78
2023/06/03 11:11:41;;;;;;;11.38;6.18;;;;;;;19.87;100.00;92591.94;5064343;28;20032;-77
2023/06/03 11:14:24;;;;;;;10.35;5.93;;;;;;;19.82;94.27;92592.94;5078358;28;20509;-78
2023/06/03 11:16:56;;;;;;;10.98;7.35;;;;;;;19.90;95.89;92588.56;5055051;28;20071;-78
2023/06/03 11:19:33;;;;;;;11.63;7.00;;;;;;;20.08;100.00;92586.34;5066440;28;20391;-78
2023/06/03 11:21:59;;;;;;;12.43;7.20;;;;;;;19.93;100.00;92587.91;5058376;28;20032;-78
2023/06/03 11:24:37;;;;;;;9.90;6.10;;;;;;;19.96;100.00;92579.25;5065054;28;20170;-78
2023/06/03 11:27:09;;;;;;;12.45;7.43;;;;;;;19.84;100.00;92576.69;5079595;28;20119;-81
2023/06/03 11:29:44;;;;;;;13.40;8.70;;;;;;;19.76;100.00;92584.44;5077570;28;20055;-81
2023/06/03 11:32:14;;;;;;;10.40;7.57;;;;;;;19.70;100.00;92567.22;5077589;28;20417;-81
2023/06/03 11:34:40;;;;;;;10.68;7.00;;;;;;;20.04;100.00;92578.31;5076985;28;20131;-81